sensor_id;sensor_type;location;lat;lon;timestamp;P1;durP1;ratioP1;P2;durP2;ratioP2
5077;SDS011;2557;51.390;7.494;2023-05-07T00:00:51;14.60;;;12.13;;
5077;SDS011;2557;51.390;7.494;2023-05-07T00:03:17;14.27;;;12.37;;
5077;SDS011;2557;51.390;7.494;2023-05-07T00:05:44;13.00;;;11.70;;
5077;SDS011;2557;51.390;7.494;2023-05-07T00:08:10;14.47;;;12.97;;
5077;SDS011;2557;51.390;7.494;2023-05-07T00:10:36;15.50;;;12.60;;
5077;SDS011;2557;51.390;7.494;2023-05-07T00:13:02;19.27;;;14.10;;
5077;SDS011;2557;51.390;7.494;2023-05-07T00:15:28;17.83;;;14.40;;
5077;SDS011;2557;51.390;7.494;2023-05-07T00:17:55;14.93;;;12.67;;
5077;SDS011;2557;51.390;7.494;2023-05-07T00:20:21;14.77;;;13.00;;
5077;SDS011;2557;51.390;7.494;2023-05-07T00:22:47;17.40;;;11.63;;
5077;SDS011;2557;51.390;7.494;2023-05-07T00:25:13;17.13;;;12.33;;
5077;SDS011;2557;51.390;7.494;2023-05-07T00:27:39;12.97;;;11.63;;
5077;SDS011;2557;51.390;7.494;2023-05-07T00:30:05;13.50;;;12.23;;
5077;SDS011;2557;51.390;7.494;2023-05-07T00:32:31;16.53;;;14.37;;
5077;SDS011;2557;51.390;7.494;2023-05-07T00:34:58;13.83;;;12.27;;
5077;SDS011;2557;51.390;7.494;2023-05-07T00:37:24;13.77;;;12.37;;
5077;SDS011;2557;51.390;7.494;2023-05-07T00:39:50;15.77;;;14.27;;
5077;SDS011;2557;51.390;7.494;2023-05-07T00:42:16;16.70;;;13.10;;
5077;SDS011;2557;51.390;7.494;2023-05-07T00:44:43;14.50;;;12.07;;
5077;SDS011;2557;51.390;7.494;2023-05-07T00:47:09;14.93;;;13.53;;
5077;SDS011;2557;51.390;7.494;2023-05-07T00:49:37;16.30;;;12.20;;
5077;SDS011;2557;51.390;7.494;2023-05-07T00:52:05;14.13;;;12.20;;
5077;SDS011;2557;51.390;7.494;2023-05-07T00:54:32;14.03;;;12.23;;
5077;SDS011;2557;51.390;7.494;2023-05-07T00:56:59;14.93;;;12.90;;
5077;SDS011;2557;51.390;7.494;2023-05-07T00:59:25;15.73;;;13.80;;
5077;SDS011;2557;51.390;7.494;2023-05-07T01:01:51;15.87;;;13.57;;
5077;SDS011;2557;51.390;7.494;2023-05-07T01:04:17;16.80;;;14.87;;
5077;SDS011;2557;51.390;7.494;2023-05-07T01:06:44;14.03;;;12.77;;
5077;SDS011;2557;51.390;7.494;2023-05-07T01:09:10;14.00;;;12.60;;
5077;SDS011;2557;51.390;7.494;2023-05-07T01:11:37;15.40;;;13.87;;
5077;SDS011;2557;51.390;7.494;2023-05-07T01:14:03;15.20;;;13.30;;
5077;SDS011;2557;51.390;7.494;2023-05-07T01:16:30;14.87;;;13.20;;
5077;SDS011;2557;51.390;7.494;2023-05-07T01:18:56;16.93;;;14.33;;
5077;SDS011;2557;51.390;7.494;2023-05-07T01:21:25;15.27;;;13.70;;
5077;SDS011;2557;51.390;7.494;2023-05-07T01:23:52;17.37;;;13.00;;
5077;SDS011;2557;51.390;7.494;2023-05-07T01:26:18;15.37;;;13.90;;
5077;SDS011;2557;51.390;7.494;2023-05-07T01:28:44;15.60;;;13.90;;
5077;SDS011;2557;51.390;7.494;2023-05-07T01:31:10;18.07;;;12.80;;
5077;SDS011;2557;51.390;7.494;2023-05-07T01:33:38;13.30;;;11.90;;
5077;SDS011;2557;51.390;7.494;2023-05-07T01:36:06;19.10;;;13.87;;
5077;SDS011;2557;51.390;7.494;2023-05-07T01:38:33;23.93;;;13.43;;
5077;SDS011;2557;51.390;7.494;2023-05-07T01:40:59;15.60;;;13.20;;
5077;SDS011;2557;51.390;7.494;2023-05-07T01:43:25;14.67;;;13.13;;
5077;SDS011;2557;51.390;7.494;2023-05-07T01:45:52;16.80;;;13.67;;
5077;SDS011;2557;51.390;7.494;2023-05-07T01:48:18;15.00;;;13.53;;
5077;SDS011;2557;51.390;7.494;2023-05-07T01:50:44;16.33;;;13.67;;
5077;SDS011;2557;51.390;7.494;2023-05-07T01:53:10;18.33;;;14.20;;
5077;SDS011;2557;51.390;7.494;2023-05-07T01:55:36;16.63;;;13.00;;
5077;SDS011;2557;51.390;7.494;2023-05-07T01:58:03;14.97;;;13.37;;
5077;SDS011;2557;51.390;7.494;2023-05-07T02:00:29;15.77;;;14.17;;
5077;SDS011;2557;51.390;7.494;2023-05-07T02:02:55;15.80;;;14.07;;
5077;SDS011;2557;51.390;7.494;2023-05-07T02:05:21;17.73;;;13.03;;
5077;SDS011;2557;51.390;7.494;2023-05-07T02:07:47;22.00;;;14.50;;
5077;SDS011;2557;51.390;7.494;2023-05-07T02:10:13;14.33;;;13.03;;
5077;SDS011;2557;51.390;7.494;2023-05-07T02:12:39;15.97;;;12.17;;
5077;SDS011;2557;51.390;7.494;2023-05-07T02:15:05;21.20;;;13.50;;
5077;SDS011;2557;51.390;7.494;2023-05-07T02:17:31;14.57;;;13.07;;
5077;SDS011;2557;51.390;7.494;2023-05-07T02:19:58;14.50;;;13.10;;
5077;SDS011;2557;51.390;7.494;2023-05-07T02:22:24;14.03;;;12.70;;
5077;SDS011;2557;51.390;7.494;2023-05-07T02:24:50;16.53;;;13.97;;
5077;SDS011;2557;51.390;7.494;2023-05-07T02:27:16;15.50;;;13.70;;
5077;SDS011;2557;51.390;7.494;2023-05-07T02:29:42;15.27;;;13.67;;
5077;SDS011;2557;51.390;7.494;2023-05-07T02:32:08;14.00;;;12.60;;
5077;SDS011;2557;51.390;7.494;2023-05-07T02:34:34;15.37;;;13.90;;
5077;SDS011;2557;51.390;7.494;2023-05-07T02:37:00;16.27;;;13.07;;
5077;SDS011;2557;51.390;7.494;2023-05-07T02:39:26;16.60;;;12.70;;
5077;SDS011;2557;51.390;7.494;2023-05-07T02:41:52;16.50;;;14.70;;
5077;SDS011;2557;51.390;7.494;2023-05-07T02:44:18;15.90;;;11.83;;
5077;SDS011;2557;51.390;7.494;2023-05-07T02:46:44;13.30;;;11.87;;
5077;SDS011;2557;51.390;7.494;2023-05-07T02:49:10;15.47;;;12.90;;
5077;SDS011;2557;51.390;7.494;2023-05-07T02:51:36;16.67;;;13.23;;
5077;SDS011;2557;51.390;7.494;2023-05-07T02:54:02;14.90;;;13.40;;
5077;SDS011;2557;51.390;7.494;2023-05-07T02:56:28;14.00;;;12.57;;
5077;SDS011;2557;51.390;7.494;2023-05-07T02:58:55;14.23;;;12.83;;
5077;SDS011;2557;51.390;7.494;2023-05-07T03:01:21;13.83;;;12.63;;
5077;SDS011;2557;51.390;7.494;2023-05-07T03:03:47;15.50;;;12.73;;
5077;SDS011;2557;51.390;7.494;2023-05-07T03:06:13;16.00;;;13.10;;
5077;SDS011;2557;51.390;7.494;2023-05-07T03:08:40;21.10;;;13.50;;
5077;SDS011;2557;51.390;7.494;2023-05-07T03:11:06;14.30;;;12.70;;
5077;SDS011;2557;51.390;7.494;2023-05-07T03:13:32;21.53;;;13.50;;
5077;SDS011;2557;51.390;7.494;2023-05-07T03:15:58;20.03;;;14.00;;
5077;SDS011;2557;51.390;7.494;2023-05-07T03:18:24;15.07;;;12.67;;
5077;SDS011;2557;51.390;7.494;2023-05-07T03:20:50;14.37;;;12.33;;
5077;SDS011;2557;51.390;7.494;2023-05-07T03:23:16;14.63;;;13.23;;
5077;SDS011;2557;51.390;7.494;2023-05-07T03:25:42;18.60;;;13.17;;
5077;SDS011;2557;51.390;7.494;2023-05-07T03:28:07;14.13;;;12.00;;
5077;SDS011;2557;51.390;7.494;2023-05-07T03:30:33;14.63;;;13.07;;
5077;SDS011;2557;51.390;7.494;2023-05-07T03:32:59;28.10;;;15.07;;
5077;SDS011;2557;51.390;7.494;2023-05-07T03:35:25;19.20;;;13.53;;
5077;SDS011;2557;51.390;7.494;2023-05-07T03:37:51;15.37;;;13.80;;
5077;SDS011;2557;51.390;7.494;2023-05-07T03:40:17;14.80;;;13.27;;
5077;SDS011;2557;51.390;7.494;2023-05-07T03:42:43;15.20;;;11.50;;
5077;SDS011;2557;51.390;7.494;2023-05-07T03:45:09;18.90;;;13.87;;
5077;SDS011;2557;51.390;7.494;2023-05-07T03:47:35;20.77;;;14.20;;
5077;SDS011;2557;51.390;7.494;2023-05-07T03:50:01;25.47;;;16.17;;
5077;SDS011;2557;51.390;7.494;2023-05-07T03:52:27;21.80;;;16.13;;
5077;SDS011;2557;51.390;7.494;2023-05-07T03:54:53;22.47;;;14.90;;
5077;SDS011;2557;51.390;7.494;2023-05-07T03:57:19;28.53;;;15.20;;
5077;SDS011;2557;51.390;7.494;2023-05-07T03:59:45;40.10;;;17.90;;
5077;SDS011;2557;51.390;7.494;2023-05-07T04:02:11;52.57;;;17.63;;
5077;SDS011;2557;51.390;7.494;2023-05-07T04:04:37;24.27;;;15.90;;
5077;SDS011;2557;51.390;7.494;2023-05-07T04:07:03;22.03;;;16.37;;
5077;SDS011;2557;51.390;7.494;2023-05-07T04:09:29;27.60;;;16.70;;
5077;SDS011;2557;51.390;7.494;2023-05-07T04:11:55;25.53;;;18.23;;
5077;SDS011;2557;51.390;7.494;2023-05-07T04:14:21;55.30;;;18.13;;
5077;SDS011;2557;51.390;7.494;2023-05-07T04:16:47;36.33;;;17.70;;
5077;SDS011;2557;51.390;7.494;2023-05-07T04:19:13;26.10;;;16.67;;
5077;SDS011;2557;51.390;7.494;2023-05-07T04:21:39;19.27;;;16.03;;
5077;SDS011;2557;51.390;7.494;2023-05-07T04:24:05;18.03;;;14.90;;
5077;SDS011;2557;51.390;7.494;2023-05-07T04:26:31;16.57;;;14.10;;
5077;SDS011;2557;51.390;7.494;2023-05-07T04:28:57;16.63;;;14.07;;
5077;SDS011;2557;51.390;7.494;2023-05-07T04:31:24;16.90;;;13.80;;
5077;SDS011;2557;51.390;7.494;2023-05-07T04:33:50;15.37;;;13.70;;
5077;SDS011;2557;51.390;7.494;2023-05-07T04:36:16;17.10;;;14.33;;
5077;SDS011;2557;51.390;7.494;2023-05-07T04:38:42;17.33;;;14.53;;
5077;SDS011;2557;51.390;7.494;2023-05-07T04:41:09;17.03;;;13.90;;
5077;SDS011;2557;51.390;7.494;2023-05-07T04:43:35;15.97;;;12.90;;
5077;SDS011;2557;51.390;7.494;2023-05-07T04:46:01;16.30;;;14.13;;
5077;SDS011;2557;51.390;7.494;2023-05-07T04:48:27;16.07;;;14.47;;
5077;SDS011;2557;51.390;7.494;2023-05-07T04:50:53;16.93;;;15.13;;
5077;SDS011;2557;51.390;7.494;2023-05-07T04:53:20;16.67;;;13.87;;
5077;SDS011;2557;51.390;7.494;2023-05-07T04:55:46;17.90;;;13.27;;
5077;SDS011;2557;51.390;7.494;2023-05-07T04:58:12;16.53;;;13.63;;
5077;SDS011;2557;51.390;7.494;2023-05-07T05:00:38;16.97;;;13.40;;
5077;SDS011;2557;51.390;7.494;2023-05-07T05:03:05;14.57;;;12.83;;
5077;SDS011;2557;51.390;7.494;2023-05-07T05:05:32;16.63;;;14.13;;
5077;SDS011;2557;51.390;7.494;2023-05-07T05:07:58;17.33;;;13.60;;
5077;SDS011;2557;51.390;7.494;2023-05-07T05:10:24;14.43;;;12.93;;
5077;SDS011;2557;51.390;7.494;2023-05-07T05:12:50;17.60;;;12.80;;
5077;SDS011;2557;51.390;7.494;2023-05-07T05:15:16;20.73;;;13.77;;
5077;SDS011;2557;51.390;7.494;2023-05-07T05:17:42;15.53;;;13.60;;
5077;SDS011;2557;51.390;7.494;2023-05-07T05:20:08;14.90;;;13.30;;
5077;SDS011;2557;51.390;7.494;2023-05-07T05:22:35;13.63;;;12.30;;
5077;SDS011;2557;51.390;7.494;2023-05-07T05:25:01;13.13;;;11.87;;
5077;SDS011;2557;51.390;7.494;2023-05-07T05:27:28;13.17;;;11.87;;
5077;SDS011;2557;51.390;7.494;2023-05-07T05:29:54;12.97;;;11.77;;
5077;SDS011;2557;51.390;7.494;2023-05-07T05:32:20;18.13;;;11.20;;
5077;SDS011;2557;51.390;7.494;2023-05-07T05:34:47;11.20;;;10.10;;
5077;SDS011;2557;51.390;7.494;2023-05-07T05:37:13;11.57;;;10.47;;
5077;SDS011;2557;51.390;7.494;2023-05-07T05:39:39;10.57;;;9.50;;
5077;SDS011;2557;51.390;7.494;2023-05-07T05:42:06;10.70;;;9.73;;
5077;SDS011;2557;51.390;7.494;2023-05-07T05:44:32;10.03;;;9.03;;
5077;SDS011;2557;51.390;7.494;2023-05-07T05:46:58;10.27;;;9.27;;
5077;SDS011;2557;51.390;7.494;2023-05-07T05:49:24;11.33;;;9.70;;
5077;SDS011;2557;51.390;7.494;2023-05-07T05:51:50;11.07;;;9.97;;
5077;SDS011;2557;51.390;7.494;2023-05-07T05:54:16;11.50;;;10.10;;
5077;SDS011;2557;51.390;7.494;2023-05-07T05:56:42;9.73;;;8.83;;
5077;SDS011;2557;51.390;7.494;2023-05-07T05:59:08;10.07;;;9.10;;
5077;SDS011;2557;51.390;7.494;2023-05-07T06:01:34;9.23;;;8.43;;
5077;SDS011;2557;51.390;7.494;2023-05-07T06:04:00;10.00;;;9.10;;
5077;SDS011;2557;51.390;7.494;2023-05-07T06:06:26;11.37;;;10.37;;
5077;SDS011;2557;51.390;7.494;2023-05-07T06:08:53;11.00;;;9.50;;
5077;SDS011;2557;51.390;7.494;2023-05-07T06:11:19;9.80;;;9.00;;
5077;SDS011;2557;51.390;7.494;2023-05-07T06:13:45;11.90;;;9.83;;
5077;SDS011;2557;51.390;7.494;2023-05-07T06:16:11;11.83;;;10.63;;
5077;SDS011;2557;51.390;7.494;2023-05-07T06:18:37;11.50;;;10.40;;
5077;SDS011;2557;51.390;7.494;2023-05-07T06:21:03;11.77;;;10.63;;
5077;SDS011;2557;51.390;7.494;2023-05-07T06:23:29;11.40;;;10.30;;
5077;SDS011;2557;51.390;7.494;2023-05-07T06:25:55;14.93;;;11.30;;
5077;SDS011;2557;51.390;7.494;2023-05-07T06:28:21;11.70;;;10.20;;
5077;SDS011;2557;51.390;7.494;2023-05-07T06:30:47;11.03;;;10.13;;
5077;SDS011;2557;51.390;7.494;2023-05-07T06:33:14;8.23;;;7.53;;
5077;SDS011;2557;51.390;7.494;2023-05-07T06:35:40;8.70;;;7.80;;
5077;SDS011;2557;51.390;7.494;2023-05-07T06:38:06;8.80;;;7.60;;
5077;SDS011;2557;51.390;7.494;2023-05-07T06:40:32;7.40;;;6.70;;
5077;SDS011;2557;51.390;7.494;2023-05-07T06:42:58;6.13;;;5.70;;
5077;SDS011;2557;51.390;7.494;2023-05-07T06:45:24;7.03;;;6.40;;
5077;SDS011;2557;51.390;7.494;2023-05-07T06:47:50;8.43;;;6.43;;
5077;SDS011;2557;51.390;7.494;2023-05-07T06:50:16;6.87;;;6.17;;
5077;SDS011;2557;51.390;7.494;2023-05-07T06:52:42;7.33;;;6.63;;
5077;SDS011;2557;51.390;7.494;2023-05-07T06:55:08;7.30;;;6.60;;
5077;SDS011;2557;51.390;7.494;2023-05-07T06:57:36;7.80;;;7.10;;
5077;SDS011;2557;51.390;7.494;2023-05-07T07:00:02;6.60;;;6.00;;
5077;SDS011;2557;51.390;7.494;2023-05-07T07:02:28;7.50;;;6.27;;
5077;SDS011;2557;51.390;7.494;2023-05-07T07:04:54;7.67;;;7.07;;
5077;SDS011;2557;51.390;7.494;2023-05-07T07:07:20;6.50;;;5.90;;
5077;SDS011;2557;51.390;7.494;2023-05-07T07:09:46;6.50;;;5.90;;
5077;SDS011;2557;51.390;7.494;2023-05-07T07:12:12;7.37;;;5.53;;
5077;SDS011;2557;51.390;7.494;2023-05-07T07:14:37;6.20;;;5.73;;
5077;SDS011;2557;51.390;7.494;2023-05-07T07:17:03;6.77;;;6.07;;
5077;SDS011;2557;51.390;7.494;2023-05-07T07:19:30;6.23;;;5.20;;
5077;SDS011;2557;51.390;7.494;2023-05-07T07:21:56;5.67;;;5.13;;
5077;SDS011;2557;51.390;7.494;2023-05-07T07:24:22;6.57;;;4.90;;
5077;SDS011;2557;51.390;7.494;2023-05-07T07:26:48;7.20;;;4.13;;
5077;SDS011;2557;51.390;7.494;2023-05-07T07:29:14;5.33;;;4.83;;
5077;SDS011;2557;51.390;7.494;2023-05-07T07:31:40;5.00;;;4.17;;
5077;SDS011;2557;51.390;7.494;2023-05-07T07:34:06;5.20;;;4.67;;
5077;SDS011;2557;51.390;7.494;2023-05-07T07:36:32;4.67;;;4.27;;
5077;SDS011;2557;51.390;7.494;2023-05-07T07:38:57;7.60;;;4.70;;
5077;SDS011;2557;51.390;7.494;2023-05-07T07:41:23;4.80;;;4.40;;
5077;SDS011;2557;51.390;7.494;2023-05-07T07:43:50;5.10;;;4.80;;
5077;SDS011;2557;51.390;7.494;2023-05-07T07:46:16;3.80;;;3.43;;
5077;SDS011;2557;51.390;7.494;2023-05-07T07:48:42;4.97;;;4.57;;
5077;SDS011;2557;51.390;7.494;2023-05-07T07:51:09;4.63;;;4.10;;
5077;SDS011;2557;51.390;7.494;2023-05-07T07:53:35;6.10;;;4.10;;
5077;SDS011;2557;51.390;7.494;2023-05-07T07:56:01;4.40;;;4.10;;
5077;SDS011;2557;51.390;7.494;2023-05-07T07:58:27;4.80;;;4.40;;
5077;SDS011;2557;51.390;7.494;2023-05-07T08:00:53;5.17;;;4.10;;
5077;SDS011;2557;51.390;7.494;2023-05-07T08:03:20;4.00;;;3.60;;
5077;SDS011;2557;51.390;7.494;2023-05-07T08:05:47;4.40;;;4.00;;
5077;SDS011;2557;51.390;7.494;2023-05-07T08:08:15;4.53;;;4.10;;
5077;SDS011;2557;51.390;7.494;2023-05-07T08:10:41;4.30;;;3.97;;
5077;SDS011;2557;51.390;7.494;2023-05-07T08:13:07;6.10;;;3.43;;
5077;SDS011;2557;51.390;7.494;2023-05-07T08:15:33;3.53;;;3.23;;
5077;SDS011;2557;51.390;7.494;2023-05-07T08:18:00;4.07;;;3.77;;
5077;SDS011;2557;51.390;7.494;2023-05-07T08:20:26;5.00;;;4.27;;
5077;SDS011;2557;51.390;7.494;2023-05-07T08:22:53;5.70;;;4.50;;
5077;SDS011;2557;51.390;7.494;2023-05-07T08:25:19;7.93;;;3.90;;
5077;SDS011;2557;51.390;7.494;2023-05-07T08:27:45;5.17;;;3.97;;
5077;SDS011;2557;51.390;7.494;2023-05-07T08:30:11;4.33;;;3.93;;
5077;SDS011;2557;51.390;7.494;2023-05-07T08:32:37;6.17;;;3.90;;
5077;SDS011;2557;51.390;7.494;2023-05-07T08:35:04;4.70;;;3.80;;
5077;SDS011;2557;51.390;7.494;2023-05-07T08:37:30;7.30;;;4.57;;
5077;SDS011;2557;51.390;7.494;2023-05-07T08:39:56;4.63;;;3.63;;
5077;SDS011;2557;51.390;7.494;2023-05-07T08:42:23;4.60;;;4.20;;
5077;SDS011;2557;51.390;7.494;2023-05-07T08:44:50;7.93;;;4.23;;
5077;SDS011;2557;51.390;7.494;2023-05-07T08:47:20;3.70;;;3.40;;
5077;SDS011;2557;51.390;7.494;2023-05-07T08:49:48;3.60;;;3.40;;
5077;SDS011;2557;51.390;7.494;2023-05-07T08:52:15;4.50;;;3.23;;
5077;SDS011;2557;51.390;7.494;2023-05-07T08:54:41;4.53;;;3.53;;
5077;SDS011;2557;51.390;7.494;2023-05-07T08:57:07;4.60;;;3.20;;
5077;SDS011;2557;51.390;7.494;2023-05-07T08:59:33;3.67;;;3.07;;
5077;SDS011;2557;51.390;7.494;2023-05-07T09:02:00;3.83;;;3.07;;
5077;SDS011;2557;51.390;7.494;2023-05-07T09:04:27;3.97;;;3.50;;
5077;SDS011;2557;51.390;7.494;2023-05-07T09:06:53;3.80;;;3.20;;
5077;SDS011;2557;51.390;7.494;2023-05-07T09:09:21;3.53;;;3.10;;
5077;SDS011;2557;51.390;7.494;2023-05-07T09:11:47;3.97;;;3.60;;
5077;SDS011;2557;51.390;7.494;2023-05-07T09:14:13;3.93;;;3.60;;
5077;SDS011;2557;51.390;7.494;2023-05-07T09:16:39;4.57;;;2.90;;
5077;SDS011;2557;51.390;7.494;2023-05-07T09:19:05;4.20;;;2.80;;
5077;SDS011;2557;51.390;7.494;2023-05-07T09:21:31;3.93;;;3.57;;
5077;SDS011;2557;51.390;7.494;2023-05-07T09:23:57;4.33;;;3.40;;
5077;SDS011;2557;51.390;7.494;2023-05-07T09:26:23;3.60;;;3.30;;
5077;SDS011;2557;51.390;7.494;2023-05-07T09:28:50;3.40;;;3.10;;
5077;SDS011;2557;51.390;7.494;2023-05-07T09:31:16;3.23;;;3.00;;
5077;SDS011;2557;51.390;7.494;2023-05-07T09:33:42;4.93;;;3.53;;
5077;SDS011;2557;51.390;7.494;2023-05-07T09:36:08;4.30;;;2.93;;
5077;SDS011;2557;51.390;7.494;2023-05-07T09:38:35;3.70;;;2.37;;
5077;SDS011;2557;51.390;7.494;2023-05-07T09:41:02;2.10;;;2.00;;
5077;SDS011;2557;51.390;7.494;2023-05-07T09:43:31;2.87;;;2.67;;
5077;SDS011;2557;51.390;7.494;2023-05-07T09:45:58;5.43;;;2.80;;
5077;SDS011;2557;51.390;7.494;2023-05-07T09:48:25;3.67;;;2.27;;
5077;SDS011;2557;51.390;7.494;2023-05-07T09:50:51;2.77;;;2.63;;
5077;SDS011;2557;51.390;7.494;2023-05-07T09:53:23;4.60;;;2.90;;
5077;SDS011;2557;51.390;7.494;2023-05-07T09:55:49;5.03;;;2.53;;
5077;SDS011;2557;51.390;7.494;2023-05-07T09:58:16;2.90;;;2.70;;
5077;SDS011;2557;51.390;7.494;2023-05-07T10:00:44;7.00;;;2.10;;
5077;SDS011;2557;51.390;7.494;2023-05-07T10:03:11;1.90;;;1.80;;
5077;SDS011;2557;51.390;7.494;2023-05-07T10:05:37;1.90;;;1.80;;
5077;SDS011;2557;51.390;7.494;2023-05-07T10:08:04;7.07;;;1.70;;
5077;SDS011;2557;51.390;7.494;2023-05-07T10:10:33;1.93;;;1.80;;
5077;SDS011;2557;51.390;7.494;2023-05-07T10:12:59;4.90;;;2.10;;
5077;SDS011;2557;51.390;7.494;2023-05-07T10:15:26;4.43;;;2.30;;
5077;SDS011;2557;51.390;7.494;2023-05-07T10:17:53;2.93;;;2.20;;
5077;SDS011;2557;51.390;7.494;2023-05-07T10:20:19;2.40;;;2.10;;
5077;SDS011;2557;51.390;7.494;2023-05-07T10:22:45;2.47;;;2.20;;
5077;SDS011;2557;51.390;7.494;2023-05-07T10:25:28;2.23;;;1.93;;
5077;SDS011;2557;51.390;7.494;2023-05-07T10:27:55;1.90;;;1.80;;
5077;SDS011;2557;51.390;7.494;2023-05-07T10:30:35;2.13;;;1.90;;
5077;SDS011;2557;51.390;7.494;2023-05-07T10:33:04;3.63;;;2.23;;
5077;SDS011;2557;51.390;7.494;2023-05-07T10:35:32;2.70;;;2.50;;
5077;SDS011;2557;51.390;7.494;2023-05-07T10:38:02;2.30;;;2.13;;
5077;SDS011;2557;51.390;7.494;2023-05-07T10:40:28;3.63;;;3.43;;
5077;SDS011;2557;51.390;7.494;2023-05-07T10:42:58;3.07;;;2.87;;
5077;SDS011;2557;51.390;7.494;2023-05-07T10:45:25;3.20;;;3.00;;
5077;SDS011;2557;51.390;7.494;2023-05-07T10:50:36;3.90;;;3.60;;
5077;SDS011;2557;51.390;7.494;2023-05-07T10:55:46;5.10;;;4.80;;
5077;SDS011;2557;51.390;7.494;2023-05-07T10:58:23;6.10;;;5.50;;
5077;SDS011;2557;51.390;7.494;2023-05-07T11:00:56;5.77;;;4.57;;
5077;SDS011;2557;51.390;7.494;2023-05-07T11:03:22;6.13;;;4.63;;
5077;SDS011;2557;51.390;7.494;2023-05-07T11:05:54;6.67;;;5.37;;
5077;SDS011;2557;51.390;7.494;2023-05-07T11:08:52;6.07;;;5.43;;
5077;SDS011;2557;51.390;7.494;2023-05-07T11:11:18;6.43;;;5.80;;
5077;SDS011;2557;51.390;7.494;2023-05-07T11:13:47;6.00;;;5.60;;
5077;SDS011;2557;51.390;7.494;2023-05-07T11:16:21;6.93;;;6.33;;
5077;SDS011;2557;51.390;7.494;2023-05-07T11:18:53;5.70;;;5.20;;
5077;SDS011;2557;51.390;7.494;2023-05-07T11:24:01;6.77;;;6.03;;
5077;SDS011;2557;51.390;7.494;2023-05-07T11:26:28;8.10;;;7.50;;
5077;SDS011;2557;51.390;7.494;2023-05-07T11:28:54;7.17;;;6.50;;
5077;SDS011;2557;51.390;7.494;2023-05-07T11:31:21;7.10;;;6.50;;
5077;SDS011;2557;51.390;7.494;2023-05-07T11:33:48;7.67;;;6.97;;
5077;SDS011;2557;51.390;7.494;2023-05-07T11:36:14;7.90;;;7.13;;
5077;SDS011;2557;51.390;7.494;2023-05-07T11:38:41;9.53;;;7.23;;
5077;SDS011;2557;51.390;7.494;2023-05-07T11:41:07;9.17;;;8.37;;
5077;SDS011;2557;51.390;7.494;2023-05-07T11:43:33;7.10;;;6.50;;
5077;SDS011;2557;51.390;7.494;2023-05-07T11:46:08;8.33;;;7.57;;
5077;SDS011;2557;51.390;7.494;2023-05-07T11:48:34;7.70;;;7.00;;
5077;SDS011;2557;51.390;7.494;2023-05-07T11:51:00;7.53;;;6.93;;
5077;SDS011;2557;51.390;7.494;2023-05-07T11:53:27;8.70;;;7.80;;
5077;SDS011;2557;51.390;7.494;2023-05-07T11:55:57;9.17;;;8.37;;
5077;SDS011;2557;51.390;7.494;2023-05-07T11:58:23;7.97;;;7.20;;
5077;SDS011;2557;51.390;7.494;2023-05-07T12:00:50;9.77;;;8.80;;
5077;SDS011;2557;51.390;7.494;2023-05-07T12:03:16;9.40;;;8.50;;
5077;SDS011;2557;51.390;7.494;2023-05-07T12:05:43;10.03;;;8.53;;
5077;SDS011;2557;51.390;7.494;2023-05-07T12:08:13;11.03;;;9.93;;
5077;SDS011;2557;51.390;7.494;2023-05-07T12:10:41;10.13;;;9.23;;
5077;SDS011;2557;51.390;7.494;2023-05-07T12:15:42;10.90;;;9.80;;
5077;SDS011;2557;51.390;7.494;2023-05-07T12:18:08;11.77;;;10.57;;
5077;SDS011;2557;51.390;7.494;2023-05-07T12:20:35;11.60;;;9.50;;
5077;SDS011;2557;51.390;7.494;2023-05-07T12:23:01;12.80;;;11.03;;
5077;SDS011;2557;51.390;7.494;2023-05-07T12:25:34;9.33;;;8.43;;
5077;SDS011;2557;51.390;7.494;2023-05-07T12:28:01;9.43;;;8.53;;
5077;SDS011;2557;51.390;7.494;2023-05-07T12:30:29;11.40;;;10.30;;
5077;SDS011;2557;51.390;7.494;2023-05-07T12:32:55;10.27;;;9.20;;
5077;SDS011;2557;51.390;7.494;2023-05-07T12:35:30;11.00;;;9.97;;
5077;SDS011;2557;51.390;7.494;2023-05-07T12:38:00;11.23;;;10.23;;
5077;SDS011;2557;51.390;7.494;2023-05-07T12:40:35;12.47;;;10.60;;
5077;SDS011;2557;51.390;7.494;2023-05-07T12:43:02;13.23;;;11.23;;
5077;SDS011;2557;51.390;7.494;2023-05-07T12:45:28;11.03;;;10.00;;
5077;SDS011;2557;51.390;7.494;2023-05-07T12:47:54;12.87;;;11.60;;
5077;SDS011;2557;51.390;7.494;2023-05-07T12:50:20;13.30;;;11.53;;
5077;SDS011;2557;51.390;7.494;2023-05-07T12:52:49;12.13;;;10.87;;
5077;SDS011;2557;51.390;7.494;2023-05-07T12:55:15;11.87;;;9.83;;
5077;SDS011;2557;51.390;7.494;2023-05-07T12:57:42;13.17;;;11.13;;
5077;SDS011;2557;51.390;7.494;2023-05-07T13:00:08;12.27;;;11.07;;
5077;SDS011;2557;51.390;7.494;2023-05-07T13:02:38;13.77;;;12.23;;
5077;SDS011;2557;51.390;7.494;2023-05-07T13:05:04;13.00;;;11.70;;
5077;SDS011;2557;51.390;7.494;2023-05-07T13:07:30;12.33;;;11.13;;
5077;SDS011;2557;51.390;7.494;2023-05-07T13:09:56;12.60;;;11.30;;
5077;SDS011;2557;51.390;7.494;2023-05-07T13:12:22;13.53;;;12.13;;
5077;SDS011;2557;51.390;7.494;2023-05-07T13:14:48;14.13;;;12.77;;
5077;SDS011;2557;51.390;7.494;2023-05-07T13:17:14;17.50;;;13.00;;
5077;SDS011;2557;51.390;7.494;2023-05-07T13:19:40;13.77;;;12.40;;
5077;SDS011;2557;51.390;7.494;2023-05-07T13:22:06;16.53;;;12.60;;
5077;SDS011;2557;51.390;7.494;2023-05-07T13:24:32;13.97;;;12.53;;
5077;SDS011;2557;51.390;7.494;2023-05-07T13:26:58;14.87;;;12.17;;
5077;SDS011;2557;51.390;7.494;2023-05-07T13:29:24;13.67;;;12.33;;
5077;SDS011;2557;51.390;7.494;2023-05-07T13:31:56;14.30;;;12.90;;
5077;SDS011;2557;51.390;7.494;2023-05-07T13:34:22;15.27;;;13.30;;
5077;SDS011;2557;51.390;7.494;2023-05-07T13:36:48;14.40;;;13.00;;
5077;SDS011;2557;51.390;7.494;2023-05-07T13:39:14;13.70;;;12.40;;
5077;SDS011;2557;51.390;7.494;2023-05-07T13:41:40;17.47;;;15.30;;
5077;SDS011;2557;51.390;7.494;2023-05-07T13:44:06;18.17;;;14.93;;
5077;SDS011;2557;51.390;7.494;2023-05-07T13:46:32;14.67;;;13.20;;
5077;SDS011;2557;51.390;7.494;2023-05-07T13:48:58;16.33;;;14.63;;
5077;SDS011;2557;51.390;7.494;2023-05-07T13:51:24;16.63;;;14.93;;
5077;SDS011;2557;51.390;7.494;2023-05-07T13:53:50;14.50;;;11.70;;
5077;SDS011;2557;51.390;7.494;2023-05-07T13:56:17;11.90;;;10.80;;
5077;SDS011;2557;51.390;7.494;2023-05-07T13:58:43;15.90;;;12.20;;
5077;SDS011;2557;51.390;7.494;2023-05-07T14:01:09;13.33;;;11.10;;
5077;SDS011;2557;51.390;7.494;2023-05-07T14:03:35;9.13;;;7.40;;
5077;SDS011;2557;51.390;7.494;2023-05-07T14:06:02;6.10;;;5.63;;
5077;SDS011;2557;51.390;7.494;2023-05-07T14:08:29;6.50;;;5.90;;
5077;SDS011;2557;51.390;7.494;2023-05-07T14:10:55;9.93;;;6.57;;
5077;SDS011;2557;51.390;7.494;2023-05-07T14:13:21;7.17;;;6.47;;
5077;SDS011;2557;51.390;7.494;2023-05-07T14:15:47;9.00;;;7.17;;
5077;SDS011;2557;51.390;7.494;2023-05-07T14:18:14;8.50;;;7.40;;
5077;SDS011;2557;51.390;7.494;2023-05-07T14:20:40;8.53;;;7.83;;
5077;SDS011;2557;51.390;7.494;2023-05-07T14:23:08;10.13;;;9.20;;
5077;SDS011;2557;51.390;7.494;2023-05-07T14:25:34;9.90;;;8.90;;
5077;SDS011;2557;51.390;7.494;2023-05-07T14:28:00;14.37;;;9.57;;
5077;SDS011;2557;51.390;7.494;2023-05-07T14:30:26;8.87;;;7.87;;
5077;SDS011;2557;51.390;7.494;2023-05-07T14:32:52;10.57;;;8.97;;
5077;SDS011;2557;51.390;7.494;2023-05-07T14:35:18;9.70;;;8.27;;
5077;SDS011;2557;51.390;7.494;2023-05-07T14:37:44;9.23;;;8.10;;
5077;SDS011;2557;51.390;7.494;2023-05-07T14:40:10;10.27;;;8.87;;
5077;SDS011;2557;51.390;7.494;2023-05-07T14:42:36;21.10;;;9.30;;
5077;SDS011;2557;51.390;7.494;2023-05-07T14:45:02;10.97;;;9.90;;
5077;SDS011;2557;51.390;7.494;2023-05-07T14:47:28;10.17;;;9.27;;
5077;SDS011;2557;51.390;7.494;2023-05-07T14:49:54;10.63;;;8.63;;
5077;SDS011;2557;51.390;7.494;2023-05-07T14:52:22;9.50;;;8.60;;
5077;SDS011;2557;51.390;7.494;2023-05-07T14:54:48;11.90;;;8.83;;
5077;SDS011;2557;51.390;7.494;2023-05-07T14:57:14;11.83;;;9.50;;
5077;SDS011;2557;51.390;7.494;2023-05-07T14:59:44;11.47;;;8.53;;
5077;SDS011;2557;51.390;7.494;2023-05-07T15:02:11;14.33;;;11.23;;
5077;SDS011;2557;51.390;7.494;2023-05-07T15:04:37;11.87;;;10.13;;
5077;SDS011;2557;51.390;7.494;2023-05-07T15:07:04;10.63;;;9.60;;